Hypoluxo, Florida
Current Conditions -  °F | °C
As of 4:53 PM on Tuesday 25 Nov 2014 (Local Time) from KPBI Reporting Station
Broken Clouds Broken Clouds  
Wind Chill: 28°   Ceiling: 3900
Heat Index: 31°   Visibility: 10mi
Dew Point: 23°   Wind: 16mph
Humidity: 74%   Direction: 170°S
Pressure: 29.92"   Gusts: 24mph
Location:  26.5758°N, 80.0835°W
Report Text: KPBI 252153Z 17014G21KT 10SM SCT024 BKN039 BKN250 28/23 A2992 RMK AO2 SLP131 T02780228
Loading
Personal Weather Stations






























Interactive Weather Map New forecast layout! Learn more

10-Day Weather Forecast

Advertisements
Track Severe Weather on mobile